sensor_id;sensor_type;location;lat;lon;timestamp;P1;durP1;ratioP1;P2;durP2;ratioP2
20859;SDS011;10590;48.154;11.514;2022-07-26T00:02:57;13.00;;;8.67;;
20859;SDS011;10590;48.154;11.514;2022-07-26T00:08:58;12.40;;;8.47;;
20859;SDS011;10590;48.154;11.514;2022-07-26T00:14:59;15.40;;;10.40;;
20859;SDS011;10590;48.154;11.514;2022-07-26T00:20:59;12.87;;;10.33;;
20859;SDS011;10590;48.154;11.514;2022-07-26T00:27:18;12.57;;;9.97;;
20859;SDS011;10590;48.154;11.514;2022-07-26T00:33:20;13.47;;;9.40;;
20859;SDS011;10590;48.154;11.514;2022-07-26T00:39:20;10.07;;;8.67;;
20859;SDS011;10590;48.154;11.514;2022-07-26T00:45:20;11.93;;;9.27;;
20859;SDS011;10590;48.154;11.514;2022-07-26T00:51:22;9.97;;;8.20;;
20859;SDS011;10590;48.154;11.514;2022-07-26T00:57:23;11.63;;;8.53;;
20859;SDS011;10590;48.154;11.514;2022-07-26T01:03:23;10.17;;;7.97;;
20859;SDS011;10590;48.154;11.514;2022-07-26T01:09:24;11.73;;;8.13;;
20859;SDS011;10590;48.154;11.514;2022-07-26T01:15:25;11.63;;;8.80;;
20859;SDS011;10590;48.154;11.514;2022-07-26T01:21:29;8.20;;;7.37;;
20859;SDS011;10590;48.154;11.514;2022-07-26T01:27:30;11.47;;;8.57;;
20859;SDS011;10590;48.154;11.514;2022-07-26T01:33:30;9.13;;;7.97;;
20859;SDS011;10590;48.154;11.514;2022-07-26T01:39:32;8.43;;;7.50;;
20859;SDS011;10590;48.154;11.514;2022-07-26T01:45:32;7.00;;;6.30;;
20859;SDS011;10590;48.154;11.514;2022-07-26T01:51:33;7.03;;;6.23;;
20859;SDS011;10590;48.154;11.514;2022-07-26T01:57:35;7.43;;;6.00;;
20859;SDS011;10590;48.154;11.514;2022-07-26T02:03:36;7.80;;;6.07;;
20859;SDS011;10590;48.154;11.514;2022-07-26T02:09:53;6.27;;;5.67;;
20859;SDS011;10590;48.154;11.514;2022-07-26T02:16:04;6.87;;;5.67;;
20859;SDS011;10590;48.154;11.514;2022-07-26T02:22:05;7.57;;;6.03;;
20859;SDS011;10590;48.154;11.514;2022-07-26T02:28:05;7.30;;;5.90;;
20859;SDS011;10590;48.154;11.514;2022-07-26T02:34:08;7.70;;;6.50;;
20859;SDS011;10590;48.154;11.514;2022-07-26T02:40:12;6.30;;;5.70;;
20859;SDS011;10590;48.154;11.514;2022-07-26T02:46:12;7.17;;;6.17;;
20859;SDS011;10590;48.154;11.514;2022-07-26T02:52:14;6.50;;;5.90;;
20859;SDS011;10590;48.154;11.514;2022-07-26T02:58:14;6.67;;;6.07;;
20859;SDS011;10590;48.154;11.514;2022-07-26T03:04:14;7.87;;;5.97;;
20859;SDS011;10590;48.154;11.514;2022-07-26T03:10:15;7.10;;;5.63;;
20859;SDS011;10590;48.154;11.514;2022-07-26T03:16:15;6.37;;;5.23;;
20859;SDS011;10590;48.154;11.514;2022-07-26T03:22:16;6.23;;;5.27;;
20859;SDS011;10590;48.154;11.514;2022-07-26T03:28:18;6.23;;;5.63;;
20859;SDS011;10590;48.154;11.514;2022-07-26T03:34:18;6.47;;;5.20;;
20859;SDS011;10590;48.154;11.514;2022-07-26T03:40:18;6.83;;;5.90;;
20859;SDS011;10590;48.154;11.514;2022-07-26T03:46:20;7.23;;;5.60;;
20859;SDS011;10590;48.154;11.514;2022-07-26T03:52:20;9.70;;;5.80;;
20859;SDS011;10590;48.154;11.514;2022-07-26T03:58:21;8.17;;;6.00;;
20859;SDS011;10590;48.154;11.514;2022-07-26T04:04:26;6.43;;;5.80;;
20859;SDS011;10590;48.154;11.514;2022-07-26T04:10:26;6.77;;;5.83;;
20859;SDS011;10590;48.154;11.514;2022-07-26T04:16:26;7.07;;;6.30;;
20859;SDS011;10590;48.154;11.514;2022-07-26T04:22:27;7.63;;;5.90;;
20859;SDS011;10590;48.154;11.514;2022-07-26T04:28:27;7.73;;;5.90;;
20859;SDS011;10590;48.154;11.514;2022-07-26T04:34:28;6.13;;;5.53;;
20859;SDS011;10590;48.154;11.514;2022-07-26T04:40:29;8.27;;;6.37;;
20859;SDS011;10590;48.154;11.514;2022-07-26T04:46:29;9.07;;;6.90;;
20859;SDS011;10590;48.154;11.514;2022-07-26T04:52:29;6.23;;;5.73;;
20859;SDS011;10590;48.154;11.514;2022-07-26T04:58:33;7.40;;;6.60;;
20859;SDS011;10590;48.154;11.514;2022-07-26T05:04:33;8.20;;;5.60;;
20859;SDS011;10590;48.154;11.514;2022-07-26T05:10:34;9.60;;;5.93;;
20859;SDS011;10590;48.154;11.514;2022-07-26T05:16:36;6.57;;;5.93;;
20859;SDS011;10590;48.154;11.514;2022-07-26T05:22:37;6.30;;;5.67;;
20859;SDS011;10590;48.154;11.514;2022-07-26T05:28:38;10.10;;;5.90;;
20859;SDS011;10590;48.154;11.514;2022-07-26T05:34:40;9.83;;;6.70;;
20859;SDS011;10590;48.154;11.514;2022-07-26T05:40:40;8.63;;;6.30;;
20859;SDS011;10590;48.154;11.514;2022-07-26T05:46:42;9.83;;;5.80;;
20859;SDS011;10590;48.154;11.514;2022-07-26T05:52:44;6.60;;;5.37;;
20859;SDS011;10590;48.154;11.514;2022-07-26T05:58:54;8.77;;;5.73;;
20859;SDS011;10590;48.154;11.514;2022-07-26T06:04:54;6.30;;;5.70;;
20859;SDS011;10590;48.154;11.514;2022-07-26T06:10:57;8.43;;;6.27;;
20859;SDS011;10590;48.154;11.514;2022-07-26T06:16:57;7.50;;;6.70;;
20859;SDS011;10590;48.154;11.514;2022-07-26T06:22:57;8.53;;;6.87;;
20859;SDS011;10590;48.154;11.514;2022-07-26T06:28:59;9.30;;;6.07;;
20859;SDS011;10590;48.154;11.514;2022-07-26T06:34:59;11.93;;;6.97;;
20859;SDS011;10590;48.154;11.514;2022-07-26T06:40:59;8.87;;;6.83;;
20859;SDS011;10590;48.154;11.514;2022-07-26T06:47:01;10.23;;;7.27;;
20859;SDS011;10590;48.154;11.514;2022-07-26T06:53:01;9.43;;;6.90;;
20859;SDS011;10590;48.154;11.514;2022-07-26T06:59:02;11.50;;;7.00;;
20859;SDS011;10590;48.154;11.514;2022-07-26T07:05:05;9.87;;;7.83;;
20859;SDS011;10590;48.154;11.514;2022-07-26T07:11:05;9.93;;;6.73;;
20859;SDS011;10590;48.154;11.514;2022-07-26T07:17:06;11.33;;;7.00;;
20859;SDS011;10590;48.154;11.514;2022-07-26T07:23:08;6.57;;;5.20;;
20859;SDS011;10590;48.154;11.514;2022-07-26T07:29:08;7.53;;;6.00;;
20859;SDS011;10590;48.154;11.514;2022-07-26T07:35:09;12.67;;;6.20;;
20859;SDS011;10590;48.154;11.514;2022-07-26T07:41:11;10.13;;;6.80;;
20859;SDS011;10590;48.154;11.514;2022-07-26T07:47:13;9.97;;;6.40;;
20859;SDS011;10590;48.154;11.514;2022-07-26T07:53:13;10.20;;;6.53;;
20859;SDS011;10590;48.154;11.514;2022-07-26T07:59:16;6.27;;;5.50;;
20859;SDS011;10590;48.154;11.514;2022-07-26T08:05:18;8.47;;;5.73;;
20859;SDS011;10590;48.154;11.514;2022-07-26T08:11:18;6.13;;;5.53;;
20859;SDS011;10590;48.154;11.514;2022-07-26T08:17:19;6.73;;;5.33;;
20859;SDS011;10590;48.154;11.514;2022-07-26T08:23:20;7.47;;;5.77;;
20859;SDS011;10590;48.154;11.514;2022-07-26T08:29:20;7.57;;;5.83;;
20859;SDS011;10590;48.154;11.514;2022-07-26T08:35:22;6.93;;;6.23;;
20859;SDS011;10590;48.154;11.514;2022-07-26T08:41:22;7.17;;;6.00;;
20859;SDS011;10590;48.154;11.514;2022-07-26T08:47:23;9.77;;;6.00;;
20859;SDS011;10590;48.154;11.514;2022-07-26T08:53:24;5.70;;;4.70;;
20859;SDS011;10590;48.154;11.514;2022-07-26T08:59:26;6.27;;;5.23;;
20859;SDS011;10590;48.154;11.514;2022-07-26T09:05:29;7.83;;;5.00;;
20859;SDS011;10590;48.154;11.514;2022-07-26T09:11:31;5.87;;;5.27;;
20859;SDS011;10590;48.154;11.514;2022-07-26T09:17:38;5.40;;;4.83;;
20859;SDS011;10590;48.154;11.514;2022-07-26T09:23:39;6.97;;;4.83;;
20859;SDS011;10590;48.154;11.514;2022-07-26T09:29:46;8.07;;;4.90;;
20859;SDS011;10590;48.154;11.514;2022-07-26T09:35:59;5.83;;;4.47;;
20859;SDS011;10590;48.154;11.514;2022-07-26T09:42:05;5.90;;;4.87;;
20859;SDS011;10590;48.154;11.514;2022-07-26T09:48:09;6.30;;;4.97;;
20859;SDS011;10590;48.154;11.514;2022-07-26T09:54:17;5.73;;;4.43;;
20859;SDS011;10590;48.154;11.514;2022-07-26T10:00:19;8.60;;;4.77;;
20859;SDS011;10590;48.154;11.514;2022-07-26T10:06:20;4.87;;;3.70;;
20859;SDS011;10590;48.154;11.514;2022-07-26T10:12:21;6.00;;;3.73;;
20859;SDS011;10590;48.154;11.514;2022-07-26T10:18:41;4.80;;;3.07;;
20859;SDS011;10590;48.154;11.514;2022-07-26T10:24:43;5.83;;;3.50;;
20859;SDS011;10590;48.154;11.514;2022-07-26T10:30:47;6.77;;;3.70;;
20859;SDS011;10590;48.154;11.514;2022-07-26T10:36:48;4.43;;;3.27;;
20859;SDS011;10590;48.154;11.514;2022-07-26T10:43:06;5.57;;;3.57;;
20859;SDS011;10590;48.154;11.514;2022-07-26T10:49:25;3.90;;;2.73;;
20859;SDS011;10590;48.154;11.514;2022-07-26T10:55:43;7.30;;;3.63;;
20859;SDS011;10590;48.154;11.514;2022-07-26T11:01:45;3.33;;;2.90;;
20859;SDS011;10590;48.154;11.514;2022-07-26T11:07:50;3.70;;;2.50;;
20859;SDS011;10590;48.154;11.514;2022-07-26T11:13:50;4.07;;;2.60;;
20859;SDS011;10590;48.154;11.514;2022-07-26T11:19:52;3.87;;;2.20;;
20859;SDS011;10590;48.154;11.514;2022-07-26T11:26:07;3.47;;;2.93;;
20859;SDS011;10590;48.154;11.514;2022-07-26T11:32:14;4.37;;;2.13;;
20859;SDS011;10590;48.154;11.514;2022-07-26T11:38:15;3.40;;;2.10;;
20859;SDS011;10590;48.154;11.514;2022-07-26T11:44:22;3.90;;;2.20;;
20859;SDS011;10590;48.154;11.514;2022-07-26T11:50:22;4.27;;;2.67;;
20859;SDS011;10590;48.154;11.514;2022-07-26T11:56:26;5.73;;;3.13;;
20859;SDS011;10590;48.154;11.514;2022-07-26T12:02:28;2.93;;;2.37;;
20859;SDS011;10590;48.154;11.514;2022-07-26T12:08:37;3.20;;;2.90;;
20859;SDS011;10590;48.154;11.514;2022-07-26T12:14:39;4.73;;;3.07;;
20859;SDS011;10590;48.154;11.514;2022-07-26T12:20:54;4.83;;;2.90;;
20859;SDS011;10590;48.154;11.514;2022-07-26T12:27:02;4.20;;;3.00;;
20859;SDS011;10590;48.154;11.514;2022-07-26T12:33:06;3.93;;;2.60;;
20859;SDS011;10590;48.154;11.514;2022-07-26T12:39:07;4.80;;;2.60;;
20859;SDS011;10590;48.154;11.514;2022-07-26T12:45:20;4.73;;;3.00;;
20859;SDS011;10590;48.154;11.514;2022-07-26T12:51:21;4.47;;;2.10;;
20859;SDS011;10590;48.154;11.514;2022-07-26T12:57:24;3.20;;;2.67;;
20859;SDS011;10590;48.154;11.514;2022-07-26T13:03:24;3.20;;;2.93;;
20859;SDS011;10590;48.154;11.514;2022-07-26T13:09:33;4.17;;;2.50;;
20859;SDS011;10590;48.154;11.514;2022-07-26T13:15:33;3.23;;;2.83;;
20859;SDS011;10590;48.154;11.514;2022-07-26T13:21:35;2.90;;;2.70;;
20859;SDS011;10590;48.154;11.514;2022-07-26T13:27:43;4.90;;;2.50;;
20859;SDS011;10590;48.154;11.514;2022-07-26T13:33:43;6.70;;;2.53;;
20859;SDS011;10590;48.154;11.514;2022-07-26T13:39:43;3.20;;;2.90;;
20859;SDS011;10590;48.154;11.514;2022-07-26T13:45:45;3.40;;;2.90;;
20859;SDS011;10590;48.154;11.514;2022-07-26T13:51:45;5.27;;;2.93;;
20859;SDS011;10590;48.154;11.514;2022-07-26T13:57:45;6.97;;;3.03;;
20859;SDS011;10590;48.154;11.514;2022-07-26T14:03:47;3.90;;;2.70;;
20859;SDS011;10590;48.154;11.514;2022-07-26T14:09:47;3.73;;;2.57;;
20859;SDS011;10590;48.154;11.514;2022-07-26T14:15:47;4.60;;;2.67;;
20859;SDS011;10590;48.154;11.514;2022-07-26T14:21:49;3.70;;;3.10;;
20859;SDS011;10590;48.154;11.514;2022-07-26T14:27:52;3.97;;;2.97;;
20859;SDS011;10590;48.154;11.514;2022-07-26T14:33:53;3.57;;;3.10;;
20859;SDS011;10590;48.154;11.514;2022-07-26T14:40:00;3.23;;;2.73;;
20859;SDS011;10590;48.154;11.514;2022-07-26T14:46:01;5.20;;;3.10;;
20859;SDS011;10590;48.154;11.514;2022-07-26T14:52:01;6.27;;;3.43;;
20859;SDS011;10590;48.154;11.514;2022-07-26T14:58:02;3.03;;;2.67;;
20859;SDS011;10590;48.154;11.514;2022-07-26T15:04:03;4.13;;;2.50;;
20859;SDS011;10590;48.154;11.514;2022-07-26T15:10:03;4.20;;;3.00;;
20859;SDS011;10590;48.154;11.514;2022-07-26T15:16:06;6.60;;;3.20;;
20859;SDS011;10590;48.154;11.514;2022-07-26T15:22:06;4.53;;;3.17;;
20859;SDS011;10590;48.154;11.514;2022-07-26T15:28:08;4.70;;;2.67;;
20859;SDS011;10590;48.154;11.514;2022-07-26T15:34:12;3.20;;;2.90;;
20859;SDS011;10590;48.154;11.514;2022-07-26T15:40:12;6.57;;;3.00;;
20859;SDS011;10590;48.154;11.514;2022-07-26T15:46:16;3.67;;;2.53;;
20859;SDS011;10590;48.154;11.514;2022-07-26T15:52:18;4.63;;;2.90;;
20859;SDS011;10590;48.154;11.514;2022-07-26T15:58:19;5.87;;;3.10;;
20859;SDS011;10590;48.154;11.514;2022-07-26T16:04:19;3.27;;;2.80;;
20859;SDS011;10590;48.154;11.514;2022-07-26T16:10:21;3.67;;;2.60;;
20859;SDS011;10590;48.154;11.514;2022-07-26T16:16:27;4.53;;;3.00;;
20859;SDS011;10590;48.154;11.514;2022-07-26T16:22:27;3.60;;;2.60;;
20859;SDS011;10590;48.154;11.514;2022-07-26T16:28:28;3.90;;;2.87;;
20859;SDS011;10590;48.154;11.514;2022-07-26T16:34:28;4.87;;;3.40;;
20859;SDS011;10590;48.154;11.514;2022-07-26T16:40:29;5.50;;;3.10;;
20859;SDS011;10590;48.154;11.514;2022-07-26T16:46:36;6.07;;;3.50;;
20859;SDS011;10590;48.154;11.514;2022-07-26T16:52:36;5.93;;;3.60;;
20859;SDS011;10590;48.154;11.514;2022-07-26T16:58:39;4.47;;;3.57;;
20859;SDS011;10590;48.154;11.514;2022-07-26T17:04:41;3.33;;;3.03;;
20859;SDS011;10590;48.154;11.514;2022-07-26T17:10:43;3.60;;;3.30;;
20859;SDS011;10590;48.154;11.514;2022-07-26T17:16:43;6.10;;;4.03;;
20859;SDS011;10590;48.154;11.514;2022-07-26T17:22:45;4.57;;;3.17;;
20859;SDS011;10590;48.154;11.514;2022-07-26T17:28:45;3.20;;;3.00;;
20859;SDS011;10590;48.154;11.514;2022-07-26T17:34:45;3.77;;;3.07;;
20859;SDS011;10590;48.154;11.514;2022-07-26T17:40:47;3.80;;;2.87;;
20859;SDS011;10590;48.154;11.514;2022-07-26T17:46:48;2.57;;;2.37;;
20859;SDS011;10590;48.154;11.514;2022-07-26T17:52:50;4.00;;;2.90;;
20859;SDS011;10590;48.154;11.514;2022-07-26T17:58:52;7.47;;;3.03;;
20859;SDS011;10590;48.154;11.514;2022-07-26T18:04:52;3.57;;;2.80;;
20859;SDS011;10590;48.154;11.514;2022-07-26T18:10:52;5.07;;;3.27;;
20859;SDS011;10590;48.154;11.514;2022-07-26T18:16:54;3.20;;;2.90;;
20859;SDS011;10590;48.154;11.514;2022-07-26T18:22:54;5.23;;;3.20;;
20859;SDS011;10590;48.154;11.514;2022-07-26T18:28:54;4.57;;;3.33;;
20859;SDS011;10590;48.154;11.514;2022-07-26T18:34:56;3.50;;;3.00;;
20859;SDS011;10590;48.154;11.514;2022-07-26T18:40:58;6.17;;;2.90;;
20859;SDS011;10590;48.154;11.514;2022-07-26T18:46:58;3.30;;;2.97;;
20859;SDS011;10590;48.154;11.514;2022-07-26T18:53:00;5.03;;;3.00;;
20859;SDS011;10590;48.154;11.514;2022-07-26T18:59:00;5.73;;;3.23;;
20859;SDS011;10590;48.154;11.514;2022-07-26T19:05:00;6.70;;;3.20;;
20859;SDS011;10590;48.154;11.514;2022-07-26T19:11:02;4.73;;;3.13;;
20859;SDS011;10590;48.154;11.514;2022-07-26T19:17:02;6.20;;;3.60;;
20859;SDS011;10590;48.154;11.514;2022-07-26T19:23:09;3.80;;;3.40;;
20859;SDS011;10590;48.154;11.514;2022-07-26T19:29:11;9.23;;;8.10;;
20859;SDS011;10590;48.154;11.514;2022-07-26T19:35:12;4.53;;;3.60;;
20859;SDS011;10590;48.154;11.514;2022-07-26T19:41:12;5.33;;;3.10;;
20859;SDS011;10590;48.154;11.514;2022-07-26T19:47:13;5.03;;;3.60;;
20859;SDS011;10590;48.154;11.514;2022-07-26T19:53:15;11.93;;;7.97;;
20859;SDS011;10590;48.154;11.514;2022-07-26T19:59:15;5.07;;;3.47;;
20859;SDS011;10590;48.154;11.514;2022-07-26T20:05:18;3.87;;;3.47;;
20859;SDS011;10590;48.154;11.514;2022-07-26T20:11:18;4.30;;;3.90;;
20859;SDS011;10590;48.154;11.514;2022-07-26T20:17:20;5.77;;;4.07;;
20859;SDS011;10590;48.154;11.514;2022-07-26T20:23:25;5.03;;;4.10;;
20859;SDS011;10590;48.154;11.514;2022-07-26T20:29:26;5.00;;;4.40;;
20859;SDS011;10590;48.154;11.514;2022-07-26T20:35:26;5.60;;;4.87;;
20859;SDS011;10590;48.154;11.514;2022-07-26T20:41:28;10.30;;;5.03;;
20859;SDS011;10590;48.154;11.514;2022-07-26T20:47:28;6.33;;;4.83;;
20859;SDS011;10590;48.154;11.514;2022-07-26T20:53:28;6.07;;;4.83;;
20859;SDS011;10590;48.154;11.514;2022-07-26T20:59:30;7.27;;;5.27;;
20859;SDS011;10590;48.154;11.514;2022-07-26T21:05:30;6.73;;;5.23;;
20859;SDS011;10590;48.154;11.514;2022-07-26T21:11:32;8.23;;;6.63;;
20859;SDS011;10590;48.154;11.514;2022-07-26T21:17:34;8.50;;;5.53;;
20859;SDS011;10590;48.154;11.514;2022-07-26T21:23:34;6.10;;;5.60;;
20859;SDS011;10590;48.154;11.514;2022-07-26T21:29:34;6.67;;;5.37;;
20859;SDS011;10590;48.154;11.514;2022-07-26T21:35:36;5.63;;;5.10;;
20859;SDS011;10590;48.154;11.514;2022-07-26T21:41:39;5.43;;;4.93;;
20859;SDS011;10590;48.154;11.514;2022-07-26T21:47:39;6.77;;;5.10;;
20859;SDS011;10590;48.154;11.514;2022-07-26T21:53:41;7.90;;;5.33;;
20859;SDS011;10590;48.154;11.514;2022-07-26T21:59:41;7.90;;;4.73;;
20859;SDS011;10590;48.154;11.514;2022-07-26T22:05:42;5.97;;;5.37;;
20859;SDS011;10590;48.154;11.514;2022-07-26T22:11:43;8.97;;;5.20;;
20859;SDS011;10590;48.154;11.514;2022-07-26T22:17:43;6.07;;;4.90;;
20859;SDS011;10590;48.154;11.514;2022-07-26T22:23:44;5.90;;;4.83;;
20859;SDS011;10590;48.154;11.514;2022-07-26T22:29:45;5.17;;;4.70;;
20859;SDS011;10590;48.154;11.514;2022-07-26T22:35:46;7.23;;;5.83;;
20859;SDS011;10590;48.154;11.514;2022-07-26T22:41:46;7.43;;;5.80;;
20859;SDS011;10590;48.154;11.514;2022-07-26T22:47:48;6.90;;;5.53;;
20859;SDS011;10590;48.154;11.514;2022-07-26T22:53:48;7.80;;;5.67;;
20859;SDS011;10590;48.154;11.514;2022-07-26T22:59:48;7.37;;;5.60;;
20859;SDS011;10590;48.154;11.514;2022-07-26T23:05:50;8.57;;;5.37;;
20859;SDS011;10590;48.154;11.514;2022-07-26T23:11:50;5.73;;;5.23;;
20859;SDS011;10590;48.154;11.514;2022-07-26T23:17:52;7.00;;;5.37;;
20859;SDS011;10590;48.154;11.514;2022-07-26T23:23:54;7.40;;;5.20;;
20859;SDS011;10590;48.154;11.514;2022-07-26T23:29:54;6.07;;;5.13;;
20859;SDS011;10590;48.154;11.514;2022-07-26T23:35:54;5.47;;;4.80;;
20859;SDS011;10590;48.154;11.514;2022-07-26T23:41:55;5.60;;;5.10;;
20859;SDS011;10590;48.154;11.514;2022-07-26T23:47:56;10.10;;;5.30;;
20859;SDS011;10590;48.154;11.514;2022-07-26T23:53:57;7.40;;;4.73;;
20859;SDS011;10590;48.154;11.514;2022-07-26T23:59:59;6.80;;;4.73;;
